Time;durP1;ratioP1;P1;durP2;ratioP2;P2;SDS_P1;SDS_P2;PMS_P1;PMS_P2;Temp;Humidity;BMP_temperature;BMP_pressure;BME280_temperature;BME280_humidity;BME280_pressure;Samples;Min_cycle;Max_cycle;Signal;HPM_P1;HPM_P2
2022/02/13 00:01:44;;;;;;;13.85;6.95;;;1.80;75.00;;;;;;5116679;28;20038;-37
2022/02/13 00:04:10;;;;;;;14.82;7.22;;;1.80;75.00;;;;;;5116696;28;20437;-40
2022/02/13 00:06:36;;;;;;;13.65;6.75;;;1.80;75.10;;;;;;5116718;28;20403;-39
2022/02/13 00:09:01;;;;;;;10.45;6.47;;;1.80;75.20;;;;;;5116840;28;20031;-36
2022/02/13 00:11:27;;;;;;;12.85;6.82;;;1.80;75.20;;;;;;5116609;28;20042;-40
2022/02/13 00:13:53;;;;;;;14.00;6.80;;;1.80;75.20;;;;;;5116436;28;20028;-37
2022/02/13 00:16:18;;;;;;;12.48;6.55;;;1.80;75.20;;;;;;5116998;28;20085;-40
2022/02/13 00:18:45;;;;;;;15.35;7.25;;;1.80;75.20;;;;;;5116242;28;20027;-39
2022/02/13 00:21:11;;;;;;;13.07;6.95;;;1.80;75.20;;;;;;5116870;28;20035;-37
2022/02/13 00:23:37;;;;;;;19.92;7.68;;;1.80;75.20;;;;;;5116594;28;20036;-40
2022/02/13 00:26:03;;;;;;;12.95;6.60;;;1.70;75.20;;;;;;5116741;28;20039;-40
2022/02/13 00:28:29;;;;;;;12.40;6.88;;;1.70;75.30;;;;;;5116098;28;20396;-41
2022/02/13 00:30:54;;;;;;;15.25;6.75;;;1.70;75.30;;;;;;5116657;28;20032;-39
2022/02/13 00:33:20;;;;;;;14.95;6.55;;;1.70;75.40;;;;;;5116112;28;20084;-38
2022/02/13 00:35:47;;;;;;;12.80;6.05;;;1.70;75.40;;;;;;5116558;28;20067;-39
2022/02/13 00:38:14;;;;;;;10.38;6.13;;;1.70;75.40;;;;;;5116557;28;20028;-41
2022/02/13 00:40:39;;;;;;;14.50;6.88;;;1.70;75.40;;;;;;5116543;28;20032;-40
2022/02/13 00:43:05;;;;;;;13.73;6.70;;;1.70;75.40;;;;;;5116058;28;20028;-38
2022/02/13 00:45:32;;;;;;;12.10;5.90;;;1.60;75.30;;;;;;5116360;28;20051;-36
2022/02/13 00:47:58;;;;;;;15.73;6.50;;;1.60;75.30;;;;;;5116081;28;20024;-36
2022/02/13 00:50:24;;;;;;;11.68;6.22;;;1.60;75.30;;;;;;5116303;28;20044;-40
2022/02/13 00:52:49;;;;;;;12.23;6.40;;;1.60;75.30;;;;;;5116062;28;20028;-37
2022/02/13 00:55:15;;;;;;;19.88;5.95;;;1.60;75.20;;;;;;5116336;28;20043;-40
2022/02/13 00:57:41;;;;;;;13.77;6.60;;;1.60;75.20;;;;;;5115918;28;20110;-39
2022/02/13 01:00:07;;;;;;;14.38;6.40;;;1.60;75.10;;;;;;5119871;28;20198;-37
2022/02/13 01:02:33;;;;;;;19.75;6.90;;;1.60;75.10;;;;;;5120058;28;20076;-37
2022/02/13 01:04:59;;;;;;;16.50;6.30;;;1.60;75.10;;;;;;5120183;28;20347;-36
2022/02/13 01:07:24;;;;;;;12.30;5.78;;;1.60;75.10;;;;;;5119722;28;20024;-39
2022/02/13 01:09:51;;;;;;;12.57;6.22;;;1.60;75.00;;;;;;5120118;28;20024;-36
2022/02/13 01:12:17;;;;;;;13.32;6.50;;;1.60;75.00;;;;;;5119836;28;20028;-39
2022/02/13 01:14:43;;;;;;;13.43;6.10;;;1.60;75.00;;;;;;5120034;28;20080;-39
2022/02/13 01:17:09;;;;;;;11.70;5.95;;;1.60;74.90;;;;;;5120108;28;20051;-37
2022/02/13 01:19:35;;;;;;;12.38;6.22;;;1.60;74.90;;;;;;5119818;28;20031;-38
2022/02/13 01:22:04;;;;;;;14.63;6.47;;;1.60;74.80;;;;;;5119956;28;20118;-41
2022/02/13 01:24:31;;;;;;;11.13;5.93;;;1.60;74.90;;;;;;5119861;28;20036;-36
2022/02/13 01:26:56;;;;;;;15.93;6.65;;;1.50;74.80;;;;;;5119661;28;20031;-40
2022/02/13 01:29:22;;;;;;;15.27;6.75;;;1.50;74.90;;;;;;5119524;28;20311;-40
2022/02/13 01:31:49;;;;;;;12.40;6.28;;;1.50;74.80;;;;;;5119313;28;20023;-39
2022/02/13 01:34:18;;;;;;;14.73;6.13;;;1.50;74.90;;;;;;5119289;28;20035;-37
2022/02/13 01:36:45;;;;;;;11.85;6.03;;;1.50;74.90;;;;;;5119081;28;20031;-40
2022/02/13 01:39:11;;;;;;;12.00;6.68;;;1.50;74.90;;;;;;5119484;28;20039;-40
2022/02/13 01:41:37;;;;;;;10.73;6.00;;;1.50;74.90;;;;;;5119342;28;20085;-39
2022/02/13 01:44:03;;;;;;;12.55;6.35;;;1.60;74.80;;;;;;5119302;27;20026;-38
2022/02/13 01:46:28;;;;;;;13.20;6.38;;;1.60;74.50;;;;;;5119767;28;20028;-39
2022/02/13 01:48:54;;;;;;;17.23;6.20;;;1.60;74.50;;;;;;5119312;28;20308;-41
2022/02/13 01:51:20;;;;;;;15.65;7.53;;;1.50;74.40;;;;;;5119144;28;20048;-39
2022/02/13 01:53:46;;;;;;;14.60;7.07;;;1.60;74.40;;;;;;5119191;28;20035;-38
2022/02/13 01:56:12;;;;;;;16.20;7.18;;;1.60;74.30;;;;;;5119589;28;20036;-39
2022/02/13 01:58:38;;;;;;;13.48;6.90;;;1.60;74.30;;;;;;5119113;28;20031;-41
2022/02/13 02:01:04;;;;;;;13.32;6.32;;;1.60;74.20;;;;;;5119579;28;20039;-39
2022/02/13 02:03:30;;;;;;;11.55;6.28;;;1.60;74.00;;;;;;5118914;28;20327;-37
2022/02/13 02:05:56;;;;;;;12.07;6.03;;;1.60;73.90;;;;;;5119148;28;20406;-40
2022/02/13 02:08:21;;;;;;;11.95;6.15;;;1.60;73.80;;;;;;5118692;28;20016;-37
2022/02/13 02:10:51;;;;;;;12.13;5.63;;;1.60;73.60;;;;;;5116690;28;20030;-39
2022/02/13 02:13:17;;;;;;;12.65;6.30;;;1.50;73.50;;;;;;5118986;28;20027;-41
2022/02/13 02:15:42;;;;;;;15.23;6.88;;;1.50;73.50;;;;;;5119198;28;20058;-36
2022/02/13 02:18:08;;;;;;;11.35;5.82;;;1.50;73.50;;;;;;5118491;28;20051;-37
2022/02/13 02:20:34;;;;;;;12.65;6.47;;;1.50;73.60;;;;;;5118869;28;20084;-40
2022/02/13 02:22:59;;;;;;;10.38;6.03;;;1.50;73.70;;;;;;5118716;28;20080;-40
2022/02/13 02:25:25;;;;;;;13.68;6.47;;;1.50;73.70;;;;;;5118811;28;20331;-37
2022/02/13 02:27:50;;;;;;;12.38;6.85;;;1.50;73.70;;;;;;5118196;28;20034;-37
2022/02/13 02:30:16;;;;;;;12.15;7.15;;;1.40;73.70;;;;;;5118811;28;20024;-37
2022/02/13 02:32:42;;;;;;;11.80;5.95;;;1.40;73.60;;;;;;5118254;28;20035;-37
2022/02/13 02:35:08;;;;;;;16.45;7.03;;;1.40;73.50;;;;;;5118601;28;20028;-39
2022/02/13 02:37:34;;;;;;;16.83;7.25;;;1.40;73.40;;;;;;5118385;28;20026;-37
2022/02/13 02:39:59;;;;;;;15.20;7.38;;;1.40;73.20;;;;;;5118471;28;20408;-39
2022/02/13 02:42:25;;;;;;;13.60;7.00;;;1.30;73.10;;;;;;5118332;28;20315;-42
2022/02/13 02:44:51;;;;;;;15.13;7.53;;;1.30;73.20;;;;;;5118231;28;20134;-39
2022/02/13 02:47:16;;;;;;;14.98;7.32;;;1.20;73.40;;;;;;5117776;28;20035;-38
2022/02/13 02:49:42;;;;;;;14.40;6.82;;;1.20;73.50;;;;;;5118179;28;20053;-39
2022/02/13 02:52:08;;;;;;;18.45;8.82;;;1.20;73.70;;;;;;5117863;28;20054;-36
2022/02/13 02:54:33;;;;;;;19.50;8.75;;;1.20;73.80;;;;;;5118363;28;20058;-40
2022/02/13 02:56:59;;;;;;;13.07;7.18;;;1.10;73.70;;;;;;5117665;28;20023;-39
2022/02/13 02:59:25;;;;;;;15.35;8.48;;;1.10;73.90;;;;;;5117987;28;20032;-36
2022/02/13 03:01:50;;;;;;;20.33;8.60;;;1.10;73.80;;;;;;5117530;28;20035;-39
2022/02/13 03:04:16;;;;;;;17.02;8.90;;;1.10;74.00;;;;;;5118129;28;20034;-39
2022/02/13 03:06:42;;;;;;;18.80;9.63;;;1.10;74.00;;;;;;5117650;28;20028;-37
2022/02/13 03:09:09;;;;;;;13.50;7.55;;;1.10;74.00;;;;;;5117800;28;20027;-38
2022/02/13 03:11:35;;;;;;;14.63;7.35;;;1.00;74.00;;;;;;5117816;28;20426;-37
2022/02/13 03:14:01;;;;;;;15.48;7.70;;;1.00;74.20;;;;;;5117687;27;20028;-40
2022/02/13 03:16:27;;;;;;;16.25;8.48;;;1.00;74.30;;;;;;5118131;28;20084;-39
2022/02/13 03:18:52;;;;;;;14.45;7.82;;;1.00;74.30;;;;;;5117589;28;20315;-38
2022/02/13 03:21:18;;;;;;;16.90;7.93;;;0.90;74.20;;;;;;5117670;28;20028;-39
2022/02/13 03:23:44;;;;;;;18.77;8.13;;;0.90;74.30;;;;;;5117402;28;20125;-36
2022/02/13 03:26:10;;;;;;;17.13;7.95;;;0.90;74.40;;;;;;5117874;28;20073;-37
2022/02/13 03:28:35;;;;;;;16.42;7.80;;;0.80;74.50;;;;;;5117305;28;20023;-36
2022/02/13 03:31:01;;;;;;;16.70;8.45;;;0.80;74.70;;;;;;5117520;28;20496;-36
2022/02/13 03:33:26;;;;;;;13.93;7.32;;;0.80;74.90;;;;;;5116961;28;20020;-41
2022/02/13 03:35:52;;;;;;;14.38;7.03;;;0.80;74.90;;;;;;5117606;28;20031;-36
2022/02/13 03:38:18;;;;;;;23.95;9.77;;;0.80;75.00;;;;;;5117251;28;20028;-41
2022/02/13 03:40:44;;;;;;;13.25;7.88;;;0.80;74.90;;;;;;5117462;28;20365;-36
2022/02/13 03:43:10;;;;;;;15.27;7.70;;;0.80;74.90;;;;;;5117058;28;20066;-36
2022/02/13 03:45:35;;;;;;;22.48;9.20;;;0.80;74.90;;;;;;5117126;28;20035;-36
2022/02/13 03:48:02;;;;;;;21.73;9.45;;;0.90;74.80;;;;;;5116668;28;20034;-40
2022/02/13 03:50:29;;;;;;;16.60;8.57;;;0.90;74.70;;;;;;5116754;28;20048;-39
2022/02/13 03:52:55;;;;;;;20.45;9.10;;;0.90;74.60;;;;;;5116549;28;20023;-37
2022/02/13 03:55:20;;;;;;;20.38;9.80;;;0.90;75.20;;;;;;5117070;28;20049;-40
2022/02/13 03:57:46;;;;;;;18.65;10.02;;;0.90;74.40;;;;;;5116632;28;20403;-40
2022/02/13 04:00:13;;;;;;;18.13;8.57;;;0.90;74.40;;;;;;5117082;28;20027;-37
2022/02/13 04:02:40;;;;;;;18.65;9.20;;;0.90;74.50;;;;;;5116544;28;20088;-36
2022/02/13 04:05:06;;;;;;;16.52;8.10;;;0.90;74.50;;;;;;5116766;28;20032;-36
2022/02/13 04:07:33;;;;;;;15.77;7.40;;;0.80;74.50;;;;;;5116484;28;20517;-37
2022/02/13 04:09:59;;;;;;;17.75;7.78;;;0.80;74.50;;;;;;5116689;28;20035;-41
2022/02/13 04:12:24;;;;;;;12.90;6.93;;;0.80;74.70;;;;;;5116546;28;20027;-38
2022/02/13 04:14:53;;;;;;;18.38;7.97;;;0.80;74.80;;;;;;5116441;28;20120;-36
2022/02/13 04:17:19;;;;;;;16.33;7.45;;;0.80;74.90;;;;;;5116228;28;20415;-37
2022/02/13 04:19:46;;;;;;;18.00;8.80;;;0.70;74.90;;;;;;5116697;28;20157;-39
2022/02/13 04:22:11;;;;;;;16.80;7.88;;;0.70;75.00;;;;;;5116253;28;20081;-36
2022/02/13 04:24:37;;;;;;;14.43;7.72;;;0.80;75.00;;;;;;5116742;28;20032;-37
2022/02/13 04:27:04;;;;;;;15.57;7.28;;;0.80;75.00;;;;;;5116396;28;20339;-41
2022/02/13 04:29:29;;;;;;;21.05;8.98;;;0.80;74.90;;;;;;5116790;28;20114;-39
2022/02/13 04:31:55;;;;;;;15.77;8.43;;;0.80;74.80;;;;;;5116180;28;20386;-37
2022/02/13 04:34:21;;;;;;;17.27;8.40;;;0.80;74.80;;;;;;5115905;28;20114;-37
2022/02/13 04:36:47;;;;;;;18.52;8.52;;;0.80;74.70;;;;;;5116127;28;20036;-36
2022/02/13 04:39:15;;;;;;;16.10;7.85;;;0.80;74.60;;;;;;5116268;28;20027;-40
2022/02/13 04:41:40;;;;;;;19.83;8.90;;;0.80;74.60;;;;;;5116287;28;20130;-40
2022/02/13 04:44:06;;;;;;;18.27;8.70;;;0.80;74.60;;;;;;5116591;28;20063;-38
2022/02/13 04:46:32;;;;;;;13.07;7.53;;;0.70;74.50;;;;;;5116428;28;20054;-40
2022/02/13 04:48:58;;;;;;;18.85;9.10;;;0.70;74.40;;;;;;5115935;28;20469;-39
2022/02/13 04:51:23;;;;;;;18.25;8.60;;;0.70;74.50;;;;;;5116149;28;20100;-37
2022/02/13 04:53:49;;;;;;;17.42;9.43;;;0.70;74.50;;;;;;5116306;28;20019;-39
2022/02/13 04:56:16;;;;;;;14.50;7.72;;;0.70;74.50;;;;;;5116609;28;20108;-36
2022/02/13 04:58:42;;;;;;;20.95;10.80;;;0.70;74.50;;;;;;5115837;28;20028;-37
2022/02/13 05:01:07;;;;;;;18.88;9.63;;;0.70;74.40;;;;;;5116545;28;20134;-39
2022/02/13 05:03:33;;;;;;;20.80;10.35;;;0.70;74.20;;;;;;5115820;28;20382;-36
2022/02/13 05:05:59;;;;;;;23.23;11.05;;;0.70;74.20;;;;;;5116324;28;20046;-40
2022/02/13 05:08:24;;;;;;;20.30;9.80;;;0.60;74.20;;;;;;5116075;28;20020;-40
2022/02/13 05:10:50;;;;;;;21.13;9.48;;;0.60;74.20;;;;;;5116312;28;20035;-37
2022/02/13 05:13:16;;;;;;;23.25;10.90;;;0.60;74.30;;;;;;5115806;28;20089;-40
2022/02/13 05:15:41;;;;;;;19.30;10.70;;;0.60;74.30;;;;;;5116190;28;20119;-37
2022/02/13 05:18:07;;;;;;;23.15;10.98;;;0.60;74.10;;;;;;5115994;28;20403;-37
2022/02/13 05:20:33;;;;;;;26.02;12.82;;;0.50;74.00;;;;;;5116217;28;20036;-39
2022/02/13 05:22:58;;;;;;;21.25;10.95;;;0.50;74.10;;;;;;5116099;28;20424;-39
2022/02/13 05:25:24;;;;;;;22.58;11.65;;;0.50;74.30;;;;;;5116067;28;20422;-40
2022/02/13 05:27:51;;;;;;;18.25;9.43;;;0.50;74.30;;;;;;5115513;28;20024;-37
2022/02/13 05:30:16;;;;;;;20.73;9.40;;;0.40;74.30;;;;;;5116105;28;20028;-36
2022/02/13 05:32:42;;;;;;;18.75;8.63;;;0.40;74.40;;;;;;5115776;28;20438;-36
2022/02/13 05:35:08;;;;;;;16.15;8.80;;;0.40;74.60;;;;;;5115915;28;20307;-40
2022/02/13 05:37:34;;;;;;;18.92;9.05;;;0.40;74.80;;;;;;5115889;28;20450;-39
2022/02/13 05:40:00;;;;;;;15.93;9.35;;;0.40;75.00;;;;;;5115868;28;20024;-39
2022/02/13 05:42:26;;;;;;;20.77;10.05;;;0.40;75.00;;;;;;5115835;28;20020;-39
2022/02/13 05:44:53;;;;;;;20.35;9.38;;;0.40;75.20;;;;;;5117020;28;20411;-36
2022/02/13 05:47:19;;;;;;;18.45;10.15;;;0.40;75.20;;;;;;5118862;28;20114;-36
2022/02/13 05:49:45;;;;;;;16.65;8.95;;;0.40;75.20;;;;;;5119373;28;20376;-36
2022/02/13 05:52:11;;;;;;;18.50;9.57;;;0.50;75.30;;;;;;5118740;28;20130;-39
2022/02/13 05:54:36;;;;;;;20.48;10.52;;;0.50;75.30;;;;;;5119214;28;20280;-36
2022/02/13 05:57:03;;;;;;;20.45;9.88;;;0.50;75.40;;;;;;5118692;28;20031;-36
2022/02/13 05:59:28;;;;;;;15.43;8.45;;;0.50;75.50;;;;;;5119112;28;20036;-41
2022/02/13 06:01:55;;;;;;;21.45;10.02;;;0.60;75.60;;;;;;5118543;28;20419;-36
2022/02/13 06:04:22;;;;;;;20.65;9.35;;;0.60;75.50;;;;;;5118994;28;20028;-36
2022/02/13 06:06:52;;;;;;;18.45;9.60;;;0.70;75.50;;;;;;5118726;28;20034;-38
2022/02/13 06:09:19;;;;;;;21.90;10.93;;;0.70;75.50;;;;;;5119110;28;20028;-39
2022/02/13 06:11:45;;;;;;;24.63;12.15;;;0.70;75.60;;;;;;5118534;28;20024;-39
2022/02/13 06:14:11;;;;;;;23.50;12.18;;;0.80;75.80;;;;;;5118736;28;20027;-36
2022/02/13 06:16:37;;;;;;;36.88;15.18;;;0.80;75.90;;;;;;5118546;28;20028;-37
2022/02/13 06:19:03;;;;;;;22.90;10.35;;;0.80;75.90;;;;;;5118710;28;20030;-39
2022/02/13 06:21:29;;;;;;;20.38;10.50;;;0.90;76.10;;;;;;5118615;28;20440;-39
2022/02/13 06:23:55;;;;;;;21.10;10.65;;;0.90;76.30;;;;;;5118539;28;20058;-37
2022/02/13 06:26:21;;;;;;;16.42;7.72;;;1.00;76.40;;;;;;5118901;28;20042;-37
2022/02/13 06:28:47;;;;;;;17.58;8.80;;;1.10;76.50;;;;;;5118313;28;20020;-39
2022/02/13 06:31:13;;;;;;;13.38;7.57;;;1.10;76.50;;;;;;5118857;28;20415;-36
2022/02/13 06:33:39;;;;;;;16.83;8.25;;;1.20;76.60;;;;;;5118139;28;20364;-37
2022/02/13 06:36:05;;;;;;;23.50;10.55;;;1.30;76.50;;;;;;5118596;28;20062;-40
2022/02/13 06:38:30;;;;;;;23.13;11.50;;;1.40;76.30;;;;;;5118263;28;20031;-37
2022/02/13 06:40:56;;;;;;;16.48;9.13;;;1.50;76.20;;;;;;5118586;28;20039;-36
2022/02/13 06:43:22;;;;;;;14.52;7.55;;;1.60;76.10;;;;;;5117819;28;20480;-40
2022/02/13 06:45:48;;;;;;;17.15;9.43;;;1.70;75.80;;;;;;5118316;28;20040;-36
2022/02/13 06:48:13;;;;;;;19.30;8.98;;;1.80;75.80;;;;;;5117593;28;20031;-36
2022/02/13 06:50:39;;;;;;;18.45;10.80;;;1.90;75.70;;;;;;5117909;28;20047;-37
2022/02/13 06:53:05;;;;;;;18.05;8.95;;;2.00;75.60;;;;;;5117611;28;20019;-39
2022/02/13 06:55:31;;;;;;;23.52;12.57;;;2.10;75.40;;;;;;5118163;28;20036;-39
2022/02/13 06:57:57;;;;;;;22.25;11.63;;;2.20;75.30;;;;;;5116804;28;20085;-40
2022/02/13 07:00:23;;;;;;;20.77;10.80;;;2.20;74.90;;;;;;5117993;28;20035;-37
2022/02/13 07:02:48;;;;;;;20.70;11.63;;;2.30;74.70;;;;;;5117461;28;20031;-36
2022/02/13 07:05:15;;;;;;;23.13;12.68;;;2.40;74.40;;;;;;5117873;28;20056;-40
2022/02/13 07:07:42;;;;;;;21.90;12.00;;;2.40;74.10;;;;;;5117620;28;20027;-36
2022/02/13 07:10:10;;;;;;;21.48;12.10;;;2.50;74.10;;;;;;5118017;28;20055;-38
2022/02/13 07:12:36;;;;;;;23.02;11.77;;;2.50;74.10;;;;;;5117285;28;20203;-38
2022/02/13 07:15:03;;;;;;;24.25;12.65;;;2.60;74.10;;;;;;5117757;28;20024;-36
2022/02/13 07:17:28;;;;;;;17.65;9.25;;;2.70;74.00;;;;;;5117145;28;20031;-37
2022/02/13 07:19:54;;;;;;;23.55;10.07;;;2.80;73.80;;;;;;5117795;28;20042;-37
2022/02/13 07:22:21;;;;;;;19.83;9.85;;;2.80;73.60;;;;;;5117484;28;20038;-37
2022/02/13 07:24:47;;;;;;;18.63;10.70;;;2.90;73.20;;;;;;5117688;28;20035;-39
2022/02/13 07:27:13;;;;;;;29.65;13.07;;;2.90;72.90;;;;;;5116882;28;20050;-36
2022/02/13 07:29:39;;;;;;;21.05;10.10;;;3.00;72.90;;;;;;5117533;28;20098;-39
2022/02/13 07:32:05;;;;;;;17.27;9.70;;;3.00;72.90;;;;;;5116940;28;20023;-36
2022/02/13 07:34:31;;;;;;;19.23;10.35;;;3.10;72.80;;;;;;5117443;28;20423;-39
2022/02/13 07:37:01;;;;;;;17.83;9.75;;;3.20;72.80;;;;;;5116893;28;20042;-39
2022/02/13 07:39:32;;;;;;;21.00;10.88;;;3.20;72.50;;;;;;5117192;28;20046;-38
2022/02/13 07:41:59;;;;;;;19.95;10.73;;;3.30;72.00;;;;;;5116786;28;20036;-40
2022/02/13 07:44:25;;;;;;;18.65;10.07;;;3.40;71.80;;;;;;5116924;28;20035;-39
2022/02/13 07:46:52;;;;;;;31.40;12.88;;;3.40;71.60;;;;;;5116751;28;20035;-37
2022/02/13 07:49:17;;;;;;;24.38;12.18;;;3.40;71.50;;;;;;5116918;28;20054;-40
2022/02/13 07:51:43;;;;;;;21.80;10.45;;;3.50;71.60;;;;;;5116301;28;20071;-39
2022/02/13 07:54:09;;;;;;;29.00;13.98;;;3.50;71.40;;;;;;5117109;27;20320;-39
2022/02/13 07:56:35;;;;;;;20.58;10.63;;;3.60;71.20;;;;;;5116574;28;20023;-37
2022/02/13 07:59:00;;;;;;;20.50;11.90;;;3.60;71.00;;;;;;5116957;28;20035;-38
2022/02/13 08:01:26;;;;;;;20.27;10.05;;;3.70;70.90;;;;;;5116978;28;20106;-36
2022/02/13 08:03:53;;;;;;;19.38;10.40;;;3.70;70.50;;;;;;5116252;27;20102;-37
2022/02/13 08:06:19;;;;;;;16.90;9.23;;;3.70;70.40;;;;;;5116942;28;20101;-39
2022/02/13 08:08:48;;;;;;;39.58;16.92;;;3.80;70.10;;;;;;5115049;28;20024;-37
2022/02/13 08:11:15;;;;;;;24.98;12.65;;;3.80;69.70;;;;;;5116962;28;20446;-40
2022/02/13 08:13:40;;;;;;;18.65;10.30;;;3.80;69.50;;;;;;5116611;28;20064;-41
2022/02/13 08:16:06;;;;;;;20.45;9.40;;;3.90;69.70;;;;;;5116611;28;20032;-36
2022/02/13 08:18:32;;;;;;;19.45;9.30;;;3.90;69.20;;;;;;5116345;28;20024;-37
2022/02/13 08:20:59;;;;;;;23.52;9.77;;;4.00;69.00;;;;;;5116684;28;20036;-40
2022/02/13 08:23:25;;;;;;;20.73;10.30;;;4.00;68.70;;;;;;5116393;28;20297;-40
2022/02/13 08:25:52;;;;;;;16.30;7.57;;;4.00;68.60;;;;;;5116494;28;20084;-37
2022/02/13 08:28:18;;;;;;;13.27;6.32;;;4.10;68.70;;;;;;5115817;28;20031;-37
2022/02/13 08:30:44;;;;;;;13.77;7.07;;;4.20;68.10;;;;;;5115524;28;20084;-40
2022/02/13 08:33:11;;;;;;;12.52;6.28;;;4.20;68.10;;;;;;5116457;28;20028;-39
2022/02/13 08:35:37;;;;;;;13.18;6.28;;;4.30;66.80;;;;;;5116217;28;20357;-40
2022/02/13 08:38:06;;;;;;;15.98;6.88;;;4.30;66.70;;;;;;5116083;28;20113;-40
2022/02/13 08:40:33;;;;;;;12.32;6.18;;;4.30;67.00;;;;;;5116326;28;20125;-40
2022/02/13 08:42:59;;;;;;;11.02;6.10;;;4.30;66.10;;;;;;5115885;28;20439;-40
2022/02/13 08:45:36;;;;;;;13.55;6.85;;;4.40;66.10;;;;;;5116007;28;20036;-37
2022/02/13 08:48:03;;;;;;;13.75;7.22;;;4.40;66.10;;;;;;5115930;28;20024;-40
2022/02/13 08:50:28;;;;;;;18.85;8.70;;;4.40;66.10;;;;;;5116098;28;20331;-39
2022/02/13 08:52:54;;;;;;;9.48;5.55;;;4.40;66.30;;;;;;5115800;28;20016;-41
2022/02/13 08:55:21;;;;;;;12.27;5.95;;;4.50;66.10;;;;;;5115953;28;20046;-40
2022/02/13 08:57:47;;;;;;;12.90;6.25;;;4.50;65.90;;;;;;5115687;28;20091;-41
2022/02/13 09:00:15;;;;;;;17.52;6.80;;;4.60;65.10;;;;;;5115814;28;20071;-41
2022/02/13 09:02:41;;;;;;;11.65;5.45;;;4.60;65.40;;;;;;5115646;28;20036;-40
2022/02/13 09:05:08;;;;;;;13.45;6.10;;;4.70;64.60;;;;;;5116015;28;20105;-41
2022/02/13 09:07:38;;;;;;;15.90;8.20;;;4.70;64.80;;;;;;5115412;28;20031;-37
2022/02/13 09:10:08;;;;;;;13.90;6.93;;;4.70;65.10;;;;;;5115955;28;20055;-37
2022/02/13 09:12:34;;;;;;;11.77;5.97;;;4.80;65.10;;;;;;5116055;28;20307;-39
2022/02/13 09:15:00;;;;;;;13.18;6.88;;;4.80;64.70;;;;;;5116154;28;20111;-40
2022/02/13 09:17:26;;;;;;;10.70;5.38;;;4.80;64.60;;;;;;5115847;28;20023;-40
2022/02/13 09:19:51;;;;;;;13.90;6.95;;;4.80;64.80;;;;;;5116890;28;20040;-38
2022/02/13 09:22:17;;;;;;;12.65;5.63;;;4.90;64.70;;;;;;5119785;28;20032;-38
2022/02/13 09:24:43;;;;;;;7.60;4.10;;;4.90;64.50;;;;;;5119366;28;20410;-37
2022/02/13 09:27:09;;;;;;;9.52;4.35;;;4.90;63.90;;;;;;5119270;28;20419;-40
2022/02/13 09:29:36;;;;;;;9.30;3.67;;;5.00;62.60;;;;;;5119488;28;20035;-37
2022/02/13 09:32:03;;;;;;;9.32;3.22;;;5.00;61.40;;;;;;5119620;28;20020;-37
2022/02/13 09:34:30;;;;;;;13.50;6.32;;;4.90;61.00;;;;;;5119736;27;20036;-41
2022/02/13 09:36:56;;;;;;;11.50;4.60;;;5.00;60.40;;;;;;5119316;28;20075;-40
2022/02/13 09:39:23;;;;;;;6.95;3.60;;;5.00;60.80;;;;;;5119496;28;20424;-41
2022/02/13 09:41:50;;;;;;;9.57;3.92;;;5.00;59.80;;;;;;5119232;28;20027;-40
2022/02/13 09:44:17;;;;;;;6.55;3.00;;;5.00;59.40;;;;;;5118280;28;20038;-40
2022/02/13 09:46:47;;;;;;;6.03;2.83;;;5.00;58.40;;;;;;5118656;28;20403;-41
2022/02/13 09:49:16;;;;;;;10.98;4.32;;;5.10;58.20;;;;;;5117817;28;20072;-40
2022/02/13 09:51:42;;;;;;;8.13;3.22;;;5.10;58.40;;;;;;5118544;28;20335;-40
2022/02/13 09:54:09;;;;;;;6.05;3.05;;;5.10;58.10;;;;;;5119003;28;20019;-41
2022/02/13 09:56:35;;;;;;;5.88;2.95;;;5.20;57.80;;;;;;5118651;28;20430;-37
2022/02/13 09:59:04;;;;;;;9.88;3.03;;;5.20;57.00;;;;;;5118748;28;20305;-41
2022/02/13 10:01:39;;;;;;;6.05;3.35;;;5.30;56.50;;;;;;5119161;28;20518;-40
2022/02/13 10:04:09;;;;;;;7.25;3.55;;;5.30;56.20;;;;;;5118777;28;20039;-37
2022/02/13 10:06:38;;;;;;;6.45;3.10;;;5.40;56.10;;;;;;5118272;28;20088;-41
2022/02/13 10:09:06;;;;;;;7.75;3.80;;;5.40;56.80;;;;;;5118487;28;20478;-41
2022/02/13 10:11:35;;;;;;;8.25;3.60;;;5.50;56.70;;;;;;5118667;28;20034;-40
2022/02/13 10:14:10;;;;;;;6.32;3.33;;;5.60;55.60;;;;;;5118810;28;20450;-38
2022/02/13 10:16:41;;;;;;;5.20;3.08;;;5.70;55.10;;;;;;5118728;28;20193;-37
2022/02/13 10:19:11;;;;;;;5.38;2.85;;;5.70;54.90;;;;;;5118543;28;20057;-38
2022/02/13 10:21:38;;;;;;;6.68;3.30;;;5.70;53.80;;;;;;5118282;28;20031;-40
2022/02/13 10:24:20;;;;;;;10.60;4.03;;;5.70;53.80;;;;;;5118735;28;20095;-40
2022/02/13 10:27:01;;;;;;;4.70;2.83;;;5.80;54.30;;;;;;5118425;28;20032;-37
2022/02/13 10:29:30;;;;;;;24.45;5.82;;;5.80;53.70;;;;;;5118354;28;20039;-41
2022/02/13 10:32:26;;;;;;;6.22;3.40;;;5.80;53.70;;;;;;5117289;28;20307;-40
2022/02/13 10:35:06;;;;;;;9.95;3.80;;;5.80;53.60;;;;;;5118582;28;20019;-40
2022/02/13 10:37:55;;;;;;;8.45;3.50;;;5.90;54.30;;;;;;5117811;28;20050;-41
2022/02/13 10:40:38;;;;;;;6.72;2.80;;;5.90;53.40;;;;;;5118198;28;20035;-41
2022/02/13 10:43:07;;;;;;;5.22;3.35;;;6.00;52.30;;;;;;5117996;28;20324;-41
2022/02/13 10:45:34;;;;;;;7.13;2.78;;;6.00;52.50;;;;;;5118091;28;20100;-38
2022/02/13 10:48:04;;;;;;;5.68;2.92;;;6.00;52.10;;;;;;5117483;28;20603;-40
2022/02/13 10:50:37;;;;;;;7.32;2.85;;;6.10;52.00;;;;;;5117645;28;20157;-37
2022/02/13 10:53:05;;;;;;;8.82;3.10;;;6.10;52.30;;;;;;5117352;28;20415;-40
2022/02/13 10:55:34;;;;;;;7.03;2.75;;;6.20;52.60;;;;;;5117905;28;20023;-40
2022/02/13 10:58:00;;;;;;;7.03;2.88;;;6.30;51.20;;;;;;5117228;28;20035;-41
2022/02/13 11:00:27;;;;;;;5.15;3.20;;;6.30;51.10;;;;;;5117743;28;20084;-41
2022/02/13 11:02:54;;;;;;;10.98;4.55;;;6.30;51.60;;;;;;5117347;28;20019;-37
2022/02/13 11:05:28;;;;;;;9.38;4.72;;;6.30;51.70;;;;;;5117697;27;20038;-40
2022/02/13 11:08:01;;;;;;;7.13;3.00;;;6.40;52.40;;;;;;5117157;27;20031;-40
2022/02/13 11:10:30;;;;;;;12.88;3.78;;;6.40;51.40;;;;;;5117343;28;20431;-40
2022/02/13 11:12:55;;;;;;;6.60;2.85;;;6.40;51.90;;;;;;5114967;28;20103;-40
2022/02/13 11:15:32;;;;;;;9.38;3.30;;;6.40;51.50;;;;;;5117273;28;20111;-37
2022/02/13 11:18:06;;;;;;;11.43;3.90;;;6.50;51.70;;;;;;5116816;28;20020;-37
2022/02/13 11:20:34;;;;;;;5.30;2.42;;;6.60;51.40;;;;;;5117270;28;20024;-41
2022/02/13 11:23:25;;;;;;;6.63;3.00;;;6.60;50.50;;;;;;5116783;28;20035;-40
2022/02/13 11:26:06;;;;;;;6.82;3.95;;;6.70;50.40;;;;;;5117049;28;20044;-37
2022/02/13 11:28:46;;;;;;;6.35;2.25;;;6.80;49.60;;;;;;5116719;28;20038;-37
2022/02/13 11:31:33;;;;;;;6.90;3.53;;;6.90;49.50;;;;;;5117333;28;20038;-40
2022/02/13 11:33:59;;;;;;;4.50;2.60;;;6.90;49.30;;;;;;5116608;28;20637;-38
2022/02/13 11:36:52;;;;;;;14.70;6.30;;;6.90;48.10;;;;;;5117308;28;20033;-42
2022/02/13 11:39:39;;;;;;;5.90;2.90;;;7.00;48.90;;;;;;5116912;28;20424;-41
2022/02/13 11:42:18;;;;;;;13.15;3.53;;;7.00;48.60;;;;;;5116613;28;20331;-41
2022/02/13 11:44:58;;;;;;;5.30;3.13;;;7.10;48.30;;;;;;5116874;28;20039;-40
2022/02/13 11:47:37;;;;;;;5.45;2.70;;;7.20;47.30;;;;;;5116275;28;20030;-41
2022/02/13 11:50:09;;;;;;;16.33;4.90;;;7.20;47.50;;;;;;5116432;28;20038;-37
2022/02/13 11:52:38;;;;;;;11.15;5.07;;;7.20;47.90;;;;;;5116599;28;20324;-41
2022/02/13 11:55:12;;;;;;;6.85;3.03;;;7.30;48.00;;;;;;5116756;28;20023;-37
2022/02/13 11:57:52;;;;;;;9.25;5.10;;;7.30;48.10;;;;;;5116239;28;20443;-37
2022/02/13 12:00:17;;;;;;;6.70;2.88;;;7.40;48.30;;;;;;5116640;28;20361;-38
2022/02/13 12:02:47;;;;;;;7.80;3.33;;;7.40;48.00;;;;;;5115899;28;20085;-42
2022/02/13 12:05:16;;;;;;;8.60;3.23;;;7.50;48.20;;;;;;5116408;27;20035;-38
2022/02/13 12:07:44;;;;;;;4.63;2.70;;;7.50;47.50;;;;;;5116737;28;20650;-40
2022/02/13 12:10:20;;;;;;;4.95;3.05;;;7.60;47.80;;;;;;5116780;28;20034;-35
2022/02/13 12:12:47;;;;;;;12.27;5.45;;;7.70;47.40;;;;;;5116556;28;20088;-37
2022/02/13 12:15:14;;;;;;;7.65;3.30;;;7.70;48.10;;;;;;5116299;28;20063;-39
2022/02/13 12:17:40;;;;;;;6.78;2.72;;;7.80;48.10;;;;;;5116114;28;20117;-41
2022/02/13 12:20:13;;;;;;;6.15;3.20;;;7.80;47.10;;;;;;5115405;28;20111;-42
2022/02/13 12:22:40;;;;;;;6.80;3.00;;;7.80;46.60;;;;;;5116119;28;20053;-37
2022/02/13 12:25:10;;;;;;;11.70;4.40;;;7.80;46.40;;;;;;5116287;28;20031;-41
2022/02/13 12:27:39;;;;;;;7.63;3.40;;;7.80;46.90;;;;;;5115948;28;20408;-37
2022/02/13 12:30:08;;;;;;;8.00;3.40;;;7.90;46.60;;;;;;5115507;28;20366;-37
2022/02/13 12:32:38;;;;;;;14.77;7.95;;;8.00;46.90;;;;;;5115708;28;20103;-42
2022/02/13 12:35:08;;;;;;;7.05;3.50;;;8.00;46.50;;;;;;5116299;28;20032;-41
2022/02/13 12:37:35;;;;;;;12.63;4.68;;;8.10;46.30;;;;;;5115745;28;20034;-41
2022/02/13 12:40:02;;;;;;;11.85;3.97;;;8.20;46.30;;;;;;5115949;28;20392;-37
2022/02/13 12:42:33;;;;;;;8.27;3.53;;;8.30;46.20;;;;;;5116207;28;20032;-40
2022/02/13 12:45:00;;;;;;;9.13;5.10;;;8.40;46.20;;;;;;5116039;28;20038;-36
2022/02/13 12:47:31;;;;;;;6.13;3.22;;;8.50;46.30;;;;;;5115978;28;20035;-39
2022/02/13 12:50:00;;;;;;;9.00;4.05;;;8.50;45.50;;;;;;5115715;28;20327;-41